sensor_id;sensor_type;location;lat;lon;timestamp;pressure;altitude;pressure_sealevel;temperature;humidity
65756;BME280;52489;47.502;18.940;2023-03-23T00:00:25;98014.63;;;8.65;61.96
65756;BME280;52489;47.502;18.940;2023-03-23T00:01:28;98015.22;;;8.62;62.63
65756;BME280;52489;47.502;18.940;2023-03-23T00:02:32;98011.31;;;8.59;62.25
65756;BME280;52489;47.502;18.940;2023-03-23T00:03:37;98010.91;;;8.52;62.55
65756;BME280;52489;47.502;18.940;2023-03-23T00:04:38;98008.91;;;8.44;62.60
65756;BME280;52489;47.502;18.940;2023-03-23T00:05:40;98008.72;;;8.40;62.36
65756;BME280;52489;47.502;18.940;2023-03-23T00:06:43;98003.75;;;8.39;62.22
65756;BME280;52489;47.502;18.940;2023-03-23T00:07:47;98012.59;;;8.43;62.01
65756;BME280;52489;47.502;18.940;2023-03-23T00:08:54;98006.81;;;8.46;61.75
65756;BME280;52489;47.502;18.940;2023-03-23T00:10:01;98005.25;;;8.45;62.19
65756;BME280;52489;47.502;18.940;2023-03-23T00:11:04;98006.25;;;8.49;62.04
65756;BME280;52489;47.502;18.940;2023-03-23T00:12:07;98013.38;;;8.62;61.14
65756;BME280;52489;47.502;18.940;2023-03-23T00:13:08;98005.47;;;8.68;61.01
65756;BME280;52489;47.502;18.940;2023-03-23T00:14:12;98009.13;;;8.66;61.08
65756;BME280;52489;47.502;18.940;2023-03-23T00:15:14;98005.31;;;8.59;61.72
65756;BME280;52489;47.502;18.940;2023-03-23T00:16:21;97998.19;;;8.64;61.30
65756;BME280;52489;47.502;18.940;2023-03-23T00:17:31;98003.91;;;8.66;61.07
65756;BME280;52489;47.502;18.940;2023-03-23T00:18:36;98004.97;;;8.65;61.24
65756;BME280;52489;47.502;18.940;2023-03-23T00:19:38;98001.75;;;8.55;61.55
65756;BME280;52489;47.502;18.940;2023-03-23T00:20:52;98004.34;;;8.55;61.63
65756;BME280;52489;47.502;18.940;2023-03-23T00:21:54;98001.78;;;8.50;61.77
65756;BME280;52489;47.502;18.940;2023-03-23T00:22:56;98003.91;;;8.48;62.44
65756;BME280;52489;47.502;18.940;2023-03-23T00:24:05;98003.97;;;8.42;62.46
65756;BME280;52489;47.502;18.940;2023-03-23T00:25:08;98002.44;;;8.36;63.02
65756;BME280;52489;47.502;18.940;2023-03-23T00:26:11;98001.25;;;8.29;62.81
65756;BME280;52489;47.502;18.940;2023-03-23T00:27:13;98000.75;;;8.27;62.59
65756;BME280;52489;47.502;18.940;2023-03-23T00:28:16;98000.69;;;8.32;62.24
65756;BME280;52489;47.502;18.940;2023-03-23T00:29:20;97996.25;;;8.32;62.37
65756;BME280;52489;47.502;18.940;2023-03-23T00:30:22;97998.91;;;8.27;62.55
65756;BME280;52489;47.502;18.940;2023-03-23T00:31:24;97997.06;;;8.28;62.41
65756;BME280;52489;47.502;18.940;2023-03-23T00:32:26;97995.34;;;8.42;61.85
65756;BME280;52489;47.502;18.940;2023-03-23T00:33:30;97994.22;;;8.48;61.50
65756;BME280;52489;47.502;18.940;2023-03-23T00:34:34;97993.66;;;8.51;61.35
65756;BME280;52489;47.502;18.940;2023-03-23T00:35:36;97990.06;;;8.47;61.81
65756;BME280;52489;47.502;18.940;2023-03-23T00:36:38;97987.69;;;8.51;61.56
65756;BME280;52489;47.502;18.940;2023-03-23T00:37:46;97988.87;;;8.58;61.15
65756;BME280;52489;47.502;18.940;2023-03-23T00:38:48;97996.72;;;8.58;61.15
65756;BME280;52489;47.502;18.940;2023-03-23T00:39:50;97997.56;;;8.73;60.75
65756;BME280;52489;47.502;18.940;2023-03-23T00:40:53;97998.13;;;8.70;60.69
65756;BME280;52489;47.502;18.940;2023-03-23T00:41:55;97997.63;;;8.68;60.99
65756;BME280;52489;47.502;18.940;2023-03-23T00:43:02;97989.87;;;8.62;61.17
65756;BME280;52489;47.502;18.940;2023-03-23T00:44:05;97993.59;;;8.56;61.49
65756;BME280;52489;47.502;18.940;2023-03-23T00:45:06;97997.28;;;8.55;61.13
65756;BME280;52489;47.502;18.940;2023-03-23T00:46:11;97989.78;;;8.49;62.01
65756;BME280;52489;47.502;18.940;2023-03-23T00:47:14;97994.78;;;8.45;62.13
65756;BME280;52489;47.502;18.940;2023-03-23T00:48:23;97991.47;;;8.39;62.53
65756;BME280;52489;47.502;18.940;2023-03-23T00:49:26;97993.62;;;8.32;63.07
65756;BME280;52489;47.502;18.940;2023-03-23T00:50:28;97996.87;;;8.24;63.15
65756;BME280;52489;47.502;18.940;2023-03-23T00:51:29;97989.03;;;8.24;62.79
65756;BME280;52489;47.502;18.940;2023-03-23T00:52:31;97991.94;;;8.23;62.91
65756;BME280;52489;47.502;18.940;2023-03-23T00:53:33;97990.72;;;8.15;64.04
65756;BME280;52489;47.502;18.940;2023-03-23T00:54:34;97992.03;;;8.12;63.76
65756;BME280;52489;47.502;18.940;2023-03-23T00:55:41;97991.41;;;8.02;64.59
65756;BME280;52489;47.502;18.940;2023-03-23T00:56:43;97991.72;;;7.95;64.81
65756;BME280;52489;47.502;18.940;2023-03-23T00:57:45;97979.53;;;7.90;65.23
65756;BME280;52489;47.502;18.940;2023-03-23T00:58:49;97987.66;;;7.84;64.95
65756;BME280;52489;47.502;18.940;2023-03-23T00:59:51;97985.62;;;7.81;65.15
65756;BME280;52489;47.502;18.940;2023-03-23T01:00:53;97986.47;;;7.76;65.73
65756;BME280;52489;47.502;18.940;2023-03-23T01:01:55;97990.41;;;7.73;65.32
65756;BME280;52489;47.502;18.940;2023-03-23T01:02:57;97983.13;;;7.70;65.57
65756;BME280;52489;47.502;18.940;2023-03-23T01:04:00;97977.75;;;7.62;65.33
65756;BME280;52489;47.502;18.940;2023-03-23T01:05:02;97983.13;;;7.70;64.59
65756;BME280;52489;47.502;18.940;2023-03-23T01:06:10;97982.31;;;7.75;64.46
65756;BME280;52489;47.502;18.940;2023-03-23T01:07:13;97980.69;;;7.79;64.35
65756;BME280;52489;47.502;18.940;2023-03-23T01:08:15;97972.56;;;7.81;64.25
65756;BME280;52489;47.502;18.940;2023-03-23T01:09:19;97984.59;;;7.82;64.33
65756;BME280;52489;47.502;18.940;2023-03-23T01:10:22;97979.59;;;7.85;64.07
65756;BME280;52489;47.502;18.940;2023-03-23T01:11:26;97977.53;;;7.82;64.35
65756;BME280;52489;47.502;18.940;2023-03-23T01:12:28;97979.63;;;7.80;64.49
65756;BME280;52489;47.502;18.940;2023-03-23T01:13:29;97976.75;;;7.82;64.64
65756;BME280;52489;47.502;18.940;2023-03-23T01:14:31;97980.41;;;7.81;64.77
65756;BME280;52489;47.502;18.940;2023-03-23T01:15:33;97979.41;;;7.77;64.69
65756;BME280;52489;47.502;18.940;2023-03-23T01:16:35;97974.72;;;7.79;64.66
65756;BME280;52489;47.502;18.940;2023-03-23T01:17:36;97979.84;;;7.84;63.88
65756;BME280;52489;47.502;18.940;2023-03-23T01:18:39;97978.47;;;7.91;63.10
65756;BME280;52489;47.502;18.940;2023-03-23T01:19:41;97973.47;;;7.95;62.88
65756;BME280;52489;47.502;18.940;2023-03-23T01:20:43;97980.72;;;7.98;62.78
65756;BME280;52489;47.502;18.940;2023-03-23T01:21:45;97968.97;;;8.01;62.51
65756;BME280;52489;47.502;18.940;2023-03-23T01:22:47;97973.16;;;8.02;62.46
65756;BME280;52489;47.502;18.940;2023-03-23T01:23:49;97972.44;;;7.96;62.64
65756;BME280;52489;47.502;18.940;2023-03-23T01:24:51;97974.75;;;7.97;62.47
65756;BME280;52489;47.502;18.940;2023-03-23T01:25:52;97971.88;;;7.99;62.79
65756;BME280;52489;47.502;18.940;2023-03-23T01:26:55;97978.78;;;8.09;62.29
65756;BME280;52489;47.502;18.940;2023-03-23T01:27:58;97973.56;;;8.09;62.08
65756;BME280;52489;47.502;18.940;2023-03-23T01:28:59;97973.56;;;8.09;62.20
65756;BME280;52489;47.502;18.940;2023-03-23T01:30:02;97977.50;;;8.06;61.91
65756;BME280;52489;47.502;18.940;2023-03-23T01:31:07;97970.12;;;8.13;61.57
65756;BME280;52489;47.502;18.940;2023-03-23T01:32:10;97970.62;;;8.15;61.52
65756;BME280;52489;47.502;18.940;2023-03-23T01:33:12;97973.00;;;8.12;61.77
65756;BME280;52489;47.502;18.940;2023-03-23T01:34:13;97974.22;;;8.19;61.52
65756;BME280;52489;47.502;18.940;2023-03-23T01:35:15;97968.50;;;8.17;61.63
65756;BME280;52489;47.502;18.940;2023-03-23T01:36:20;97968.88;;;8.30;61.04
65756;BME280;52489;47.502;18.940;2023-03-23T01:37:23;97966.00;;;8.31;60.87
65756;BME280;52489;47.502;18.940;2023-03-23T01:38:27;97968.69;;;8.45;60.44
65756;BME280;52489;47.502;18.940;2023-03-23T01:39:29;97967.00;;;8.54;60.04
65756;BME280;52489;47.502;18.940;2023-03-23T01:40:31;97964.53;;;8.63;59.51
65756;BME280;52489;47.502;18.940;2023-03-23T01:41:33;97963.44;;;8.83;58.95
65756;BME280;52489;47.502;18.940;2023-03-23T01:42:37;97963.72;;;9.00;58.47
65756;BME280;52489;47.502;18.940;2023-03-23T01:43:55;97956.50;;;8.92;58.93
65756;BME280;52489;47.502;18.940;2023-03-23T01:46:19;97957.25;;;8.79;59.17
65756;BME280;52489;47.502;18.940;2023-03-23T01:47:23;97958.09;;;8.74;59.33
65756;BME280;52489;47.502;18.940;2023-03-23T01:48:32;97953.66;;;8.75;59.48
65756;BME280;52489;47.502;18.940;2023-03-23T01:49:38;97955.97;;;8.76;59.34
65756;BME280;52489;47.502;18.940;2023-03-23T01:50:58;97959.37;;;8.77;59.55
65756;BME280;52489;47.502;18.940;2023-03-23T01:52:06;97958.41;;;8.73;59.77
65756;BME280;52489;47.502;18.940;2023-03-23T01:53:10;97960.00;;;8.69;59.96
65756;BME280;52489;47.502;18.940;2023-03-23T01:54:14;97957.97;;;8.65;60.05
65756;BME280;52489;47.502;18.940;2023-03-23T01:55:21;97958.03;;;8.60;60.25
65756;BME280;52489;47.502;18.940;2023-03-23T01:56:28;97956.56;;;8.54;60.66
65756;BME280;52489;47.502;18.940;2023-03-23T01:57:34;97960.44;;;8.57;60.65
65756;BME280;52489;47.502;18.940;2023-03-23T01:58:37;97956.06;;;8.52;60.57
65756;BME280;52489;47.502;18.940;2023-03-23T01:59:43;97949.84;;;8.48;60.57
65756;BME280;52489;47.502;18.940;2023-03-23T02:00:46;97959.81;;;8.46;60.71
65756;BME280;52489;47.502;18.940;2023-03-23T02:01:49;97961.44;;;8.42;60.91
65756;BME280;52489;47.502;18.940;2023-03-23T02:02:54;97955.16;;;8.43;61.11
65756;BME280;52489;47.502;18.940;2023-03-23T02:03:56;97960.63;;;8.60;60.60
65756;BME280;52489;47.502;18.940;2023-03-23T02:05:02;97960.38;;;8.62;60.31
65756;BME280;52489;47.502;18.940;2023-03-23T02:06:06;97960.16;;;8.58;60.47
65756;BME280;52489;47.502;18.940;2023-03-23T02:07:09;97955.97;;;8.57;60.50
65756;BME280;52489;47.502;18.940;2023-03-23T02:08:11;97957.41;;;8.50;60.87
65756;BME280;52489;47.502;18.940;2023-03-23T02:09:16;97959.31;;;8.44;61.31
65756;BME280;52489;47.502;18.940;2023-03-23T02:10:21;97956.78;;;8.39;61.18
65756;BME280;52489;47.502;18.940;2023-03-23T02:11:22;97953.91;;;8.35;61.11
65756;BME280;52489;47.502;18.940;2023-03-23T02:12:24;97960.97;;;8.35;61.36
65756;BME280;52489;47.502;18.940;2023-03-23T02:13:27;97961.25;;;8.33;61.55
65756;BME280;52489;47.502;18.940;2023-03-23T02:14:30;97956.88;;;8.29;62.14
65756;BME280;52489;47.502;18.940;2023-03-23T02:15:47;97961.88;;;8.25;62.07
65756;BME280;52489;47.502;18.940;2023-03-23T02:16:59;97960.38;;;8.19;62.34
65756;BME280;52489;47.502;18.940;2023-03-23T02:22:06;97971.16;;;8.12;62.46
65756;BME280;52489;47.502;18.940;2023-03-23T02:23:37;97966.41;;;8.19;62.19
65756;BME280;52489;47.502;18.940;2023-03-23T02:26:11;97952.09;;;8.36;61.36
65756;BME280;52489;47.502;18.940;2023-03-23T02:32:01;97965.31;;;8.45;60.89
65756;BME280;52489;47.502;18.940;2023-03-23T02:34:48;97963.00;;;8.43;60.99
65756;BME280;52489;47.502;18.940;2023-03-23T02:35:58;97971.03;;;8.47;60.69
65756;BME280;52489;47.502;18.940;2023-03-23T02:37:21;97968.28;;;8.76;59.60
65756;BME280;52489;47.502;18.940;2023-03-23T02:39:46;97967.91;;;8.63;59.86
65756;BME280;52489;47.502;18.940;2023-03-23T02:40:51;97973.41;;;8.81;59.13
65756;BME280;52489;47.502;18.940;2023-03-23T02:42:00;97959.72;;;8.70;59.21
65756;BME280;52489;47.502;18.940;2023-03-23T02:43:07;97967.63;;;8.65;59.64
65756;BME280;52489;47.502;18.940;2023-03-23T02:44:11;97971.59;;;8.62;59.63
65756;BME280;52489;47.502;18.940;2023-03-23T02:45:16;97973.25;;;8.72;59.35
65756;BME280;52489;47.502;18.940;2023-03-23T02:46:20;97962.06;;;8.72;59.24
65756;BME280;52489;47.502;18.940;2023-03-23T02:47:25;97970.09;;;8.75;59.10
65756;BME280;52489;47.502;18.940;2023-03-23T02:48:29;97977.16;;;8.75;59.15
65756;BME280;52489;47.502;18.940;2023-03-23T02:49:34;97967.13;;;8.82;59.16
65756;BME280;52489;47.502;18.940;2023-03-23T02:50:40;97962.06;;;9.04;58.16
65756;BME280;52489;47.502;18.940;2023-03-23T02:51:45;97971.25;;;9.02;58.20
65756;BME280;52489;47.502;18.940;2023-03-23T02:52:53;97965.56;;;9.00;58.23
65756;BME280;52489;47.502;18.940;2023-03-23T02:53:58;97969.78;;;8.96;58.53
65756;BME280;52489;47.502;18.940;2023-03-23T02:55:01;97967.88;;;9.01;58.06
65756;BME280;52489;47.502;18.940;2023-03-23T02:56:05;97963.72;;;9.00;58.05
65756;BME280;52489;47.502;18.940;2023-03-23T02:57:08;97971.25;;;9.02;57.98
65756;BME280;52489;47.502;18.940;2023-03-23T02:58:11;97974.03;;;9.24;57.05
65756;BME280;52489;47.502;18.940;2023-03-23T02:59:13;97966.41;;;9.42;56.41
65756;BME280;52489;47.502;18.940;2023-03-23T03:00:16;97968.16;;;9.46;56.25
65756;BME280;52489;47.502;18.940;2023-03-23T03:02:29;97972.84;;;9.17;57.48
65756;BME280;52489;47.502;18.940;2023-03-23T03:03:33;97961.59;;;9.02;58.36
65756;BME280;52489;47.502;18.940;2023-03-23T03:04:36;97974.72;;;8.97;58.18
65756;BME280;52489;47.502;18.940;2023-03-23T03:07:45;97967.53;;;8.89;58.44
65756;BME280;52489;47.502;18.940;2023-03-23T03:09:03;97959.00;;;8.83;58.42
65756;BME280;52489;47.502;18.940;2023-03-23T03:10:11;97966.06;;;8.83;58.54
65756;BME280;52489;47.502;18.940;2023-03-23T03:11:17;97957.28;;;8.93;58.24
65756;BME280;52489;47.502;18.940;2023-03-23T03:12:44;97966.44;;;9.09;57.38
65756;BME280;52489;47.502;18.940;2023-03-23T03:14:09;97960.44;;;9.08;57.33
65756;BME280;52489;47.502;18.940;2023-03-23T03:17:42;97969.84;;;9.09;57.45
65756;BME280;52489;47.502;18.940;2023-03-23T03:19:03;97967.28;;;9.04;57.50
65756;BME280;52489;47.502;18.940;2023-03-23T03:20:08;97966.81;;;9.02;57.59
65756;BME280;52489;47.502;18.940;2023-03-23T03:21:16;97972.25;;;9.06;57.35
65756;BME280;52489;47.502;18.940;2023-03-23T03:22:22;97964.59;;;9.09;57.28
65756;BME280;52489;47.502;18.940;2023-03-23T03:23:25;97959.31;;;9.15;57.09
65756;BME280;52489;47.502;18.940;2023-03-23T03:24:29;97965.22;;;9.20;56.60
65756;BME280;52489;47.502;18.940;2023-03-23T03:25:33;97967.34;;;9.18;56.78
65756;BME280;52489;47.502;18.940;2023-03-23T03:26:35;97962.25;;;9.41;55.86
65756;BME280;52489;47.502;18.940;2023-03-23T03:27:37;97966.91;;;9.44;55.74
65756;BME280;52489;47.502;18.940;2023-03-23T03:28:43;97970.00;;;9.46;55.67
65756;BME280;52489;47.502;18.940;2023-03-23T03:29:54;97975.41;;;9.36;55.99
65756;BME280;52489;47.502;18.940;2023-03-23T03:31:02;97976.88;;;9.42;55.97
65756;BME280;52489;47.502;18.940;2023-03-23T03:32:06;97976.28;;;9.45;55.79
65756;BME280;52489;47.502;18.940;2023-03-23T03:33:11;97974.34;;;9.37;55.96
65756;BME280;52489;47.502;18.940;2023-03-23T03:34:14;97978.59;;;9.32;56.03
65756;BME280;52489;47.502;18.940;2023-03-23T03:35:23;97979.50;;;9.42;55.82
65756;BME280;52489;47.502;18.940;2023-03-23T03:36:29;97971.84;;;9.45;55.64
65756;BME280;52489;47.502;18.940;2023-03-23T03:37:37;97980.56;;;9.41;55.72
65756;BME280;52489;47.502;18.940;2023-03-23T03:38:48;97982.69;;;9.39;56.04
65756;BME280;52489;47.502;18.940;2023-03-23T03:39:50;97977.66;;;9.42;55.89
65756;BME280;52489;47.502;18.940;2023-03-23T03:40:53;97974.84;;;9.39;56.11
65756;BME280;52489;47.502;18.940;2023-03-23T03:41:54;97973.06;;;9.34;56.23
65756;BME280;52489;47.502;18.940;2023-03-23T03:42:57;97971.72;;;9.37;56.18
65756;BME280;52489;47.502;18.940;2023-03-23T03:43:58;97975.50;;;9.30;56.21
65756;BME280;52489;47.502;18.940;2023-03-23T03:45:00;97968.88;;;9.19;56.58
65756;BME280;52489;47.502;18.940;2023-03-23T03:46:02;97976.81;;;9.14;56.83
65756;BME280;52489;47.502;18.940;2023-03-23T03:47:04;97974.28;;;9.09;57.22
65756;BME280;52489;47.502;18.940;2023-03-23T03:48:06;97977.41;;;9.11;57.11
65756;BME280;52489;47.502;18.940;2023-03-23T03:49:10;97974.78;;;9.11;56.96
65756;BME280;52489;47.502;18.940;2023-03-23T03:50:14;97973.13;;;9.15;57.39
65756;BME280;52489;47.502;18.940;2023-03-23T03:51:16;97975.56;;;9.11;57.12
65756;BME280;52489;47.502;18.940;2023-03-23T03:52:18;97980.78;;;9.11;57.12
65756;BME280;52489;47.502;18.940;2023-03-23T03:53:19;97983.41;;;9.11;57.32
65756;BME280;52489;47.502;18.940;2023-03-23T03:54:21;97983.41;;;9.11;57.24
65756;BME280;52489;47.502;18.940;2023-03-23T03:55:23;97982.69;;;9.06;57.27
65756;BME280;52489;47.502;18.940;2023-03-23T03:56:25;97979.75;;;8.94;57.64
65756;BME280;52489;47.502;18.940;2023-03-23T03:57:27;97983.59;;;9.15;57.21
65756;BME280;52489;47.502;18.940;2023-03-23T03:58:29;97979.22;;;9.10;57.22
65756;BME280;52489;47.502;18.940;2023-03-23T03:59:33;97976.47;;;9.02;57.59
65756;BME280;52489;47.502;18.940;2023-03-23T04:00:35;97980.09;;;9.20;56.96
65756;BME280;52489;47.502;18.940;2023-03-23T04:01:37;97982.06;;;9.14;57.34
65756;BME280;52489;47.502;18.940;2023-03-23T04:02:41;97983.16;;;9.08;57.42
65756;BME280;52489;47.502;18.940;2023-03-23T04:03:42;97989.25;;;9.03;57.50
65756;BME280;52489;47.502;18.940;2023-03-23T04:04:45;97987.72;;;9.02;57.66
65756;BME280;52489;47.502;18.940;2023-03-23T04:05:46;97986.66;;;9.03;57.47
65756;BME280;52489;47.502;18.940;2023-03-23T04:06:48;97986.03;;;8.93;57.87
65756;BME280;52489;47.502;18.940;2023-03-23T04:07:50;97981.87;;;8.92;57.92
65756;BME280;52489;47.502;18.940;2023-03-23T04:08:57;97989.84;;;9.00;57.89
65756;BME280;52489;47.502;18.940;2023-03-23T04:10:00;97987.94;;;9.06;57.15
65756;BME280;52489;47.502;18.940;2023-03-23T04:11:01;97989.47;;;9.07;57.13
65756;BME280;52489;47.502;18.940;2023-03-23T04:12:03;97991.31;;;9.06;57.17
65756;BME280;52489;47.502;18.940;2023-03-23T04:13:05;97986.47;;;9.14;56.93
65756;BME280;52489;47.502;18.940;2023-03-23T04:14:07;97987.47;;;9.18;56.41
65756;BME280;52489;47.502;18.940;2023-03-23T04:15:09;97985.69;;;9.32;55.71
65756;BME280;52489;47.502;18.940;2023-03-23T04:16:11;97991.59;;;9.38;55.55
65756;BME280;52489;47.502;18.940;2023-03-23T04:17:13;97986.03;;;9.25;55.87
65756;BME280;52489;47.502;18.940;2023-03-23T04:18:17;97984.03;;;9.36;55.66
65756;BME280;52489;47.502;18.940;2023-03-23T04:19:19;97989.44;;;9.26;55.86
65756;BME280;52489;47.502;18.940;2023-03-23T04:20:21;97987.09;;;9.24;55.83
65756;BME280;52489;47.502;18.940;2023-03-23T04:21:23;97988.56;;;9.30;55.51
65756;BME280;52489;47.502;18.940;2023-03-23T04:22:24;97986.03;;;9.25;55.69
65756;BME280;52489;47.502;18.940;2023-03-23T04:23:34;97982.75;;;9.33;55.31
65756;BME280;52489;47.502;18.940;2023-03-23T04:24:36;97986.72;;;9.31;55.33
65756;BME280;52489;47.502;18.940;2023-03-23T04:25:38;97985.81;;;9.22;55.62
65756;BME280;52489;47.502;18.940;2023-03-23T04:26:42;97982.19;;;9.37;55.30
65756;BME280;52489;47.502;18.940;2023-03-23T04:27:46;97979.78;;;9.54;54.66
65756;BME280;52489;47.502;18.940;2023-03-23T04:28:54;97985.72;;;9.60;54.44
65756;BME280;52489;47.502;18.940;2023-03-23T04:29:56;97983.19;;;9.68;54.15
65756;BME280;52489;47.502;18.940;2023-03-23T04:31:00;97979.97;;;9.57;54.52
65756;BME280;52489;47.502;18.940;2023-03-23T04:32:02;97984.62;;;9.47;54.86
65756;BME280;52489;47.502;18.940;2023-03-23T04:33:04;97982.78;;;9.47;54.78
65756;BME280;52489;47.502;18.940;2023-03-23T04:34:06;97981.63;;;9.53;54.63
65756;BME280;52489;47.502;18.940;2023-03-23T04:35:12;97991.91;;;9.50;54.80
65756;BME280;52489;47.502;18.940;2023-03-23T04:36:15;97987.25;;;9.47;54.79
65756;BME280;52489;47.502;18.940;2023-03-23T04:37:17;97982.94;;;9.37;55.58
65756;BME280;52489;47.502;18.940;2023-03-23T04:38:20;97984.53;;;9.38;55.35
65756;BME280;52489;47.502;18.940;2023-03-23T04:39:22;97984.53;;;9.38;55.15
65756;BME280;52489;47.502;18.940;2023-03-23T04:40:25;97986.44;;;9.46;54.97
65756;BME280;52489;47.502;18.940;2023-03-23T04:41:27;97980.25;;;9.42;55.02
65756;BME280;52489;47.502;18.940;2023-03-23T04:42:31;97988.69;;;9.39;55.18
65756;BME280;52489;47.502;18.940;2023-03-23T04:43:33;97973.19;;;9.29;55.68
65756;BME280;52489;47.502;18.940;2023-03-23T04:44:42;97980.22;;;9.28;55.85
65756;BME280;52489;47.502;18.940;2023-03-23T04:45:44;97991.78;;;9.41;55.31
65756;BME280;52489;47.502;18.940;2023-03-23T04:46:47;97983.22;;;9.22;56.69
65756;BME280;52489;47.502;18.940;2023-03-23T04:47:51;97976.38;;;9.40;55.63
65756;BME280;52489;47.502;18.940;2023-03-23T04:48:59;97984.53;;;9.52;55.12
65756;BME280;52489;47.502;18.940;2023-03-23T04:50:01;97985.78;;;9.54;54.94
65756;BME280;52489;47.502;18.940;2023-03-23T04:51:03;97987.72;;;9.49;55.42
65756;BME280;52489;47.502;18.940;2023-03-23T04:52:05;97981.13;;;9.38;55.68
65756;BME280;52489;47.502;18.940;2023-03-23T04:53:07;97978.31;;;9.34;56.02
65756;BME280;52489;47.502;18.940;2023-03-23T04:54:09;97978.41;;;9.29;56.42
65756;BME280;52489;47.502;18.940;2023-03-23T04:55:12;97980.72;;;9.30;55.95
65756;BME280;52489;47.502;18.940;2023-03-23T04:56:13;97983.41;;;9.25;56.10
65756;BME280;52489;47.502;18.940;2023-03-23T04:57:16;97976.16;;;9.22;56.17
65756;BME280;52489;47.502;18.940;2023-03-23T04:58:18;97980.59;;;9.22;56.46
65756;BME280;52489;47.502;18.940;2023-03-23T04:59:21;97975.75;;;9.15;56.70
65756;BME280;52489;47.502;18.940;2023-03-23T05:00:23;97977.91;;;9.27;56.28
65756;BME280;52489;47.502;18.940;2023-03-23T05:01:24;97979.19;;;9.29;56.02
65756;BME280;52489;47.502;18.940;2023-03-23T05:02:29;97984.31;;;9.34;55.97
65756;BME280;52489;47.502;18.940;2023-03-23T05:03:31;97980.44;;;9.32;55.76
65756;BME280;52489;47.502;18.940;2023-03-23T05:04:33;97976.84;;;9.28;55.98
65756;BME280;52489;47.502;18.940;2023-03-23T05:05:34;97985.69;;;9.32;56.26
65756;BME280;52489;47.502;18.940;2023-03-23T05:06:37;97988.69;;;9.39;55.61
65756;BME280;52489;47.502;18.940;2023-03-23T05:07:39;97988.09;;;9.42;55.48
65756;BME280;52489;47.502;18.940;2023-03-23T05:08:41;97986.38;;;9.38;55.84
65756;BME280;52489;47.502;18.940;2023-03-23T05:09:47;97986.25;;;9.29;56.07
65756;BME280;52489;47.502;18.940;2023-03-23T05:10:57;97991.47;;;9.29;56.09
65756;BME280;52489;47.502;18.940;2023-03-23T05:12:04;97997.28;;;9.40;55.70
65756;BME280;52489;47.502;18.940;2023-03-23T05:13:06;97994.97;;;9.38;55.82
65756;BME280;52489;47.502;18.940;2023-03-23T05:14:08;97992.12;;;9.34;55.93
65756;BME280;52489;47.502;18.940;2023-03-23T05:15:12;97996.91;;;9.32;56.11
65756;BME280;52489;47.502;18.940;2023-03-23T05:16:14;97987.50;;;9.31;56.11
65756;BME280;52489;47.502;18.940;2023-03-23T05:17:16;97994.38;;;9.27;56.17
65756;BME280;52489;47.502;18.940;2023-03-23T05:18:20;97992.59;;;9.23;57.31
65756;BME280;52489;47.502;18.940;2023-03-23T05:19:22;97992.53;;;9.28;57.15
65756;BME280;52489;47.502;18.940;2023-03-23T05:20:24;97996.59;;;9.20;57.92
65756;BME280;52489;47.502;18.940;2023-03-23T05:21:26;97994.53;;;9.17;56.97
65756;BME280;52489;47.502;18.940;2023-03-23T05:22:28;97996.59;;;9.20;56.75
65756;BME280;52489;47.502;18.940;2023-03-23T05:23:30;97997.16;;;9.17;57.01
65756;BME280;52489;47.502;18.940;2023-03-23T05:24:35;97993.75;;;9.17;56.90
65756;BME280;52489;47.502;18.940;2023-03-23T05:25:36;97999.78;;;9.17;56.79
65756;BME280;52489;47.502;18.940;2023-03-23T05:26:41;97998.00;;;9.13;57.08
65756;BME280;52489;47.502;18.940;2023-03-23T05:27:43;97994.88;;;9.10;57.86
65756;BME280;52489;47.502;18.940;2023-03-23T05:28:49;97991.81;;;9.08;58.56
65756;BME280;52489;47.502;18.940;2023-03-23T05:29:53;97986.59;;;9.08;58.80
65756;BME280;52489;47.502;18.940;2023-03-23T05:30:55;97992.38;;;9.05;58.60
65756;BME280;52489;47.502;18.940;2023-03-23T05:31:57;97984.03;;;9.03;59.13
65756;BME280;52489;47.502;18.940;2023-03-23T05:33:01;97980.34;;;9.04;58.22
65756;BME280;52489;47.502;18.940;2023-03-23T05:34:03;97983.50;;;9.20;57.43
65756;BME280;52489;47.502;18.940;2023-03-23T05:35:05;97984.69;;;9.28;57.15
65756;BME280;52489;47.502;18.940;2023-03-23T05:36:07;97989.63;;;9.29;57.16
65756;BME280;52489;47.502;18.940;2023-03-23T05:37:12;97984.34;;;9.48;56.33
65756;BME280;52489;47.502;18.940;2023-03-23T05:38:15;97991.22;;;9.58;56.03
65756;BME280;52489;47.502;18.940;2023-03-23T05:39:17;97985.12;;;9.63;55.93
65756;BME280;52489;47.502;18.940;2023-03-23T05:40:19;97982.91;;;9.70;55.44
65756;BME280;52489;47.502;18.940;2023-03-23T05:41:21;97980.69;;;9.77;55.12
65756;BME280;52489;47.502;18.940;2023-03-23T05:42:24;97980.09;;;9.80;55.11
65756;BME280;52489;47.502;18.940;2023-03-23T05:43:27;97984.44;;;9.85;54.83
65756;BME280;52489;47.502;18.940;2023-03-23T05:44:28;97979.22;;;9.85;54.97
65756;BME280;52489;47.502;18.940;2023-03-23T05:45:30;97978.44;;;9.84;55.36
65756;BME280;52489;47.502;18.940;2023-03-23T05:46:32;97979.81;;;9.82;55.44
65756;BME280;52489;47.502;18.940;2023-03-23T05:47:35;97980.59;;;9.82;55.07
65756;BME280;52489;47.502;18.940;2023-03-23T05:48:37;97980.28;;;9.84;55.19
65756;BME280;52489;47.502;18.940;2023-03-23T05:49:39;97977.69;;;9.84;55.19
65756;BME280;52489;47.502;18.940;2023-03-23T05:50:41;97986.69;;;9.91;55.21
65756;BME280;52489;47.502;18.940;2023-03-23T05:51:43;97983.09;;;9.87;55.43
65756;BME280;52489;47.502;18.940;2023-03-23T05:52:45;97980.28;;;9.84;55.58
65756;BME280;52489;47.502;18.940;2023-03-23T05:53:47;97980.59;;;9.82;55.79
65756;BME280;52489;47.502;18.940;2023-03-23T05:54:49;97984.56;;;9.79;55.98
65756;BME280;52489;47.502;18.940;2023-03-23T05:55:51;97985.44;;;9.75;56.28
65756;BME280;52489;47.502;18.940;2023-03-23T05:56:54;97985.62;;;9.92;55.58
65756;BME280;52489;47.502;18.940;2023-03-23T05:57:55;97984.84;;;9.92;55.39
65756;BME280;52489;47.502;18.940;2023-03-23T05:58:58;97986.28;;;9.84;56.16